Time;durP1;ratioP1;P1;durP2;ratioP2;P2;SDS_P1;SDS_P2;PMS_P1;PMS_P2;Temp;Humidity;BMP_temperature;BMP_pressure;BME280_temperature;BME280_humidity;BME280_pressure;Samples;Min_cycle;Max_cycle;Signal;HPM_P1;HPM_P2
2023/02/13 00:01:14;;;;;;;;;;;;;;;3.94;100.00;101530.38;4962554;28;20025;-88
2023/02/13 00:04:03;;;;;;;;;;;;;;;3.93;100.00;101533.88;4940503;29;19923;-88
2023/02/13 00:06:48;;;;;;;;;;;;;;;3.84;100.00;101532.00;4954354;28;19939;-89
2023/02/13 00:09:14;;;;;;;;;;;;;;;3.80;100.00;101531.09;4915165;29;19931;-89
2023/02/13 00:11:42;;;;;;;;;;;;;;;3.79;100.00;101531.94;4934268;28;19974;-88
2023/02/13 00:14:08;;;;;;;;;;;;;;;3.72;100.00;101532.75;4931991;29;19927;-88
2023/02/13 00:16:36;;;;;;;;;;;;;;;3.68;100.00;101525.69;4931574;29;19930;-87
2023/02/13 00:19:01;;;;;;;;;;;;;;;3.64;100.00;101523.91;4929492;29;19923;-88
2023/02/13 00:21:26;;;;;;;;;;;;;;;3.61;100.00;101524.72;4928556;29;19973;-87
2023/02/13 00:24:03;;;;;;;;;;;;;;;3.58;100.00;101523.81;4930720;29;20019;-88
2023/02/13 00:26:31;;;;;;;;;;;;;;;3.59;100.00;101536.03;4945302;28;20025;-88
2023/02/13 00:29:04;;;;;;;;;;;;;;;3.53;100.00;101536.84;4959622;28;19925;-88
2023/02/13 00:31:34;;;;;;;;;;;;;;;3.55;100.00;101534.25;4968818;28;19918;-89
2023/02/13 00:33:59;;;;;;;;;;;;;;;3.51;100.00;101532.44;4959622;28;19918;-90
2023/02/13 00:36:27;;;;;;;;;;;;;;;3.48;100.00;101527.16;4971823;28;19922;-89
2023/02/13 00:41:48;;;;;;;;;;;;;;;3.41;100.00;101532.31;4967724;28;19914;-89
2023/02/13 00:44:21;;;;;;;;;;;;;;;3.41;100.00;101532.31;4968142;28;19922;-88
2023/02/13 00:46:46;;;;;;;;;;;;;;;3.41;100.00;101545.41;4957531;28;20377;-88
2023/02/13 00:49:19;;;;;;;;;;;;;;;3.35;100.00;101536.59;4966534;28;19922;-88
2023/02/13 00:51:44;;;;;;;;;;;;;;;3.34;100.00;101535.72;4969321;28;19919;-87
2023/02/13 00:54:30;;;;;;;;;;;;;;;3.36;100.00;101535.72;4968098;28;19918;-88
2023/02/13 00:56:58;;;;;;;;;;;;;;;3.33;100.00;101539.19;4947188;28;19926;-90
2023/02/13 00:59:57;;;;;;;;;;;;;;;3.30;100.00;101533.00;4958595;28;19918;-87
2023/02/13 01:02:23;;;;;;;;;;;;;;;3.27;100.00;101544.31;4945064;28;20270;-91
2023/02/13 01:05:11;;;;;;;;;;;;;;;3.28;100.00;101540.84;4975053;28;19929;-88
2023/02/13 01:07:52;;;;;;;;;;;;;;;;;;;;;
2023/02/13 01:10:41;;;;;;;;;;;;;;;3.24;100.00;101539.06;4966768;28;19928;-86
2023/02/13 01:13:23;;;;;;;;;;;;;;;;;;;;;
2023/02/13 01:15:57;;;;;;;;;;;;;;;3.28;100.00;101530.38;4969479;28;19922;-89
2023/02/13 01:18:30;;;;;;;;;;;;;;;3.19;100.00;101531.13;4966590;28;19933;-89
2023/02/13 01:20:58;;;;;;;;;;;;;;;3.17;100.00;101535.44;4958418;28;19929;-87
2023/02/13 01:23:30;;;;;;;;;;;;;;;3.18;100.00;101536.34;4958331;28;19968;-86
2023/02/13 01:25:56;;;;;;;;;;;;;;;3.16;100.00;101531.09;4955873;28;20493;-88
2023/02/13 01:28:50;;;;;;;;;;;;;;;3.17;100.00;101538.06;4966771;28;19934;-89
2023/02/13 01:35:02;;;;;;;;;;;;;;;3.08;100.00;101530.97;4940032;28;20020;-87
2023/02/13 01:37:47;;;;;;;;;;;;;;;3.07;100.00;101531.81;4949747;28;19923;-87
2023/02/13 01:40:30;;;;;;;;;;;;;;;3.07;100.00;101531.81;4949797;28;19922;-89
2023/02/13 01:43:16;;;;;;;;;;;;;;;3.09;100.00;101530.13;4949421;28;19945;-87
2023/02/13 01:46:12;;;;;;;;;;;;;;;;;;;;;
2023/02/13 01:49:09;;;;;;;;;;;;;;;3.06;100.00;101530.06;4948568;28;19925;-86
2023/02/13 01:51:41;;;;;;;;;;;;;;;3.03;100.00;101524.78;4949842;28;19930;-89
2023/02/13 01:54:26;;;;;;;;;;;;;;;;;;;;;
2023/02/13 01:57:07;;;;;;;;;;;;;;;;;;;;;
2023/02/13 02:00:04;;;;;;;;;;;;;;;;;;;;;
2023/02/13 02:50:54;;;;;;;;;;;;;;;;;;;;;
2023/02/13 02:53:28;;;;;;;;;;;;;;;5.47;100.00;101506.34;4694466;30;19923;-89
2023/02/13 03:08:12;;;;;;;;;;;;;;;5.63;100.00;101504.66;4917465;28;19945;-88
